sensor_id;sensor_type;location;lat;lon;timestamp;P1;durP1;ratioP1;P2;durP2;ratioP2
75626;SDS011;64211;49.404;11.034;2023-01-15T00:03:14;2.10;;;1.15;;
75626;SDS011;64211;49.404;11.034;2023-01-15T00:05:41;2.10;;;0.82;;
75626;SDS011;64211;49.404;11.034;2023-01-15T00:08:07;3.13;;;1.00;;
75626;SDS011;64211;49.404;11.034;2023-01-15T00:10:34;1.80;;;1.10;;
75626;SDS011;64211;49.404;11.034;2023-01-15T00:13:01;1.65;;;0.80;;
75626;SDS011;64211;49.404;11.034;2023-01-15T00:15:27;1.70;;;0.90;;
75626;SDS011;64211;49.404;11.034;2023-01-15T00:17:53;1.60;;;0.95;;
75626;SDS011;64211;49.404;11.034;2023-01-15T00:20:20;2.17;;;1.00;;
75626;SDS011;64211;49.404;11.034;2023-01-15T00:22:46;3.35;;;1.58;;
75626;SDS011;64211;49.404;11.034;2023-01-15T00:25:12;4.00;;;1.85;;
75626;SDS011;64211;49.404;11.034;2023-01-15T00:27:39;1.55;;;0.80;;
75626;SDS011;64211;49.404;11.034;2023-01-15T00:30:07;2.97;;;0.70;;
75626;SDS011;64211;49.404;11.034;2023-01-15T00:32:36;1.17;;;0.70;;
75626;SDS011;64211;49.404;11.034;2023-01-15T00:35:02;1.60;;;0.80;;
75626;SDS011;64211;49.404;11.034;2023-01-15T00:37:29;1.90;;;1.20;;
75626;SDS011;64211;49.404;11.034;2023-01-15T00:39:55;1.42;;;0.80;;
75626;SDS011;64211;49.404;11.034;2023-01-15T00:42:21;1.38;;;0.80;;
75626;SDS011;64211;49.404;11.034;2023-01-15T00:44:48;1.73;;;0.70;;
75626;SDS011;64211;49.404;11.034;2023-01-15T00:47:14;1.15;;;0.82;;
75626;SDS011;64211;49.404;11.034;2023-01-15T00:49:41;1.10;;;0.88;;
75626;SDS011;64211;49.404;11.034;2023-01-15T00:52:08;1.52;;;0.77;;
75626;SDS011;64211;49.404;11.034;2023-01-15T00:54:34;1.33;;;0.75;;
75626;SDS011;64211;49.404;11.034;2023-01-15T00:57:01;0.70;;;0.50;;
75626;SDS011;64211;49.404;11.034;2023-01-15T00:59:27;1.38;;;0.70;;
75626;SDS011;64211;49.404;11.034;2023-01-15T01:01:54;1.00;;;0.55;;
75626;SDS011;64211;49.404;11.034;2023-01-15T01:04:20;2.30;;;0.73;;
75626;SDS011;64211;49.404;11.034;2023-01-15T01:06:46;0.60;;;0.50;;
75626;SDS011;64211;49.404;11.034;2023-01-15T01:09:13;1.35;;;0.60;;
75626;SDS011;64211;49.404;11.034;2023-01-15T01:11:40;0.50;;;0.47;;
75626;SDS011;64211;49.404;11.034;2023-01-15T01:14:08;0.70;;;0.40;;
75626;SDS011;64211;49.404;11.034;2023-01-15T01:16:37;1.05;;;0.50;;
75626;SDS011;64211;49.404;11.034;2023-01-15T01:19:05;0.90;;;0.40;;
75626;SDS011;64211;49.404;11.034;2023-01-15T01:21:41;1.30;;;0.60;;
75626;SDS011;64211;49.404;11.034;2023-01-15T01:24:12;1.55;;;0.50;;
75626;SDS011;64211;49.404;11.034;2023-01-15T01:26:40;0.93;;;0.50;;
75626;SDS011;64211;49.404;11.034;2023-01-15T01:29:06;0.50;;;0.50;;
75626;SDS011;64211;49.404;11.034;2023-01-15T01:31:33;1.27;;;0.60;;
75626;SDS011;64211;49.404;11.034;2023-01-15T01:33:59;1.13;;;0.80;;
75626;SDS011;64211;49.404;11.034;2023-01-15T01:36:27;0.77;;;0.57;;
75626;SDS011;64211;49.404;11.034;2023-01-15T01:38:56;3.25;;;0.50;;
75626;SDS011;64211;49.404;11.034;2023-01-15T01:41:23;0.93;;;0.30;;
75626;SDS011;64211;49.404;11.034;2023-01-15T01:43:55;0.85;;;0.43;;
75626;SDS011;64211;49.404;11.034;2023-01-15T01:46:25;0.40;;;0.40;;
75626;SDS011;64211;49.404;11.034;2023-01-15T01:48:54;1.10;;;0.40;;
75626;SDS011;64211;49.404;11.034;2023-01-15T01:51:26;1.13;;;0.50;;
75626;SDS011;64211;49.404;11.034;2023-01-15T01:53:56;0.40;;;0.30;;
75626;SDS011;64211;49.404;11.034;2023-01-15T01:56:24;0.45;;;0.30;;
75626;SDS011;64211;49.404;11.034;2023-01-15T01:58:51;0.68;;;0.30;;
75626;SDS011;64211;49.404;11.034;2023-01-15T02:01:20;0.52;;;0.30;;
75626;SDS011;64211;49.404;11.034;2023-01-15T02:03:49;0.82;;;0.38;;
75626;SDS011;64211;49.404;11.034;2023-01-15T02:06:15;0.40;;;0.30;;
75626;SDS011;64211;49.404;11.034;2023-01-15T02:08:42;0.50;;;0.38;;
75626;SDS011;64211;49.404;11.034;2023-01-15T02:11:11;0.60;;;0.40;;
75626;SDS011;64211;49.404;11.034;2023-01-15T02:13:50;0.38;;;0.30;;
75626;SDS011;64211;49.404;11.034;2023-01-15T02:16:35;0.93;;;0.43;;
75626;SDS011;64211;49.404;11.034;2023-01-15T02:19:30;0.50;;;0.30;;
75626;SDS011;64211;49.404;11.034;2023-01-15T02:22:30;2.13;;;0.40;;
75626;SDS011;64211;49.404;11.034;2023-01-15T02:25:21;0.20;;;0.20;;
75626;SDS011;64211;49.404;11.034;2023-01-15T02:28:00;0.40;;;0.30;;
75626;SDS011;64211;49.404;11.034;2023-01-15T02:30:38;0.77;;;0.32;;
75626;SDS011;64211;49.404;11.034;2023-01-15T02:33:17;1.27;;;0.60;;
75626;SDS011;64211;49.404;11.034;2023-01-15T02:35:48;0.35;;;0.30;;
75626;SDS011;64211;49.404;11.034;2023-01-15T02:38:21;0.93;;;0.38;;
75626;SDS011;64211;49.404;11.034;2023-01-15T02:40:52;0.45;;;0.30;;
75626;SDS011;64211;49.404;11.034;2023-01-15T02:43:21;0.50;;;0.40;;
75626;SDS011;64211;49.404;11.034;2023-01-15T02:45:51;0.55;;;0.40;;
75626;SDS011;64211;49.404;11.034;2023-01-15T02:48:22;0.90;;;0.40;;
75626;SDS011;64211;49.404;11.034;2023-01-15T02:50:53;0.80;;;0.40;;
75626;SDS011;64211;49.404;11.034;2023-01-15T02:53:25;0.80;;;0.30;;
75626;SDS011;64211;49.404;11.034;2023-01-15T02:55:54;0.82;;;0.47;;
75626;SDS011;64211;49.404;11.034;2023-01-15T02:58:25;0.40;;;0.30;;
75626;SDS011;64211;49.404;11.034;2023-01-15T03:00:56;0.30;;;0.17;;
75626;SDS011;64211;49.404;11.034;2023-01-15T03:03:30;0.35;;;0.30;;
75626;SDS011;64211;49.404;11.034;2023-01-15T03:08:52;0.30;;;0.28;;
75626;SDS011;64211;49.404;11.034;2023-01-15T03:11:19;0.30;;;0.30;;
75626;SDS011;64211;49.404;11.034;2023-01-15T03:16:38;0.80;;;0.40;;
75626;SDS011;64211;49.404;11.034;2023-01-15T03:24:32;0.85;;;0.30;;
75626;SDS011;64211;49.404;11.034;2023-01-15T03:27:05;0.63;;;0.40;;
75626;SDS011;64211;49.404;11.034;2023-01-15T03:29:33;0.70;;;0.32;;
75626;SDS011;64211;49.404;11.034;2023-01-15T03:32:03;0.35;;;0.35;;
75626;SDS011;64211;49.404;11.034;2023-01-15T03:34:33;0.32;;;0.20;;
75626;SDS011;64211;49.404;11.034;2023-01-15T03:37:05;0.63;;;0.40;;
75626;SDS011;64211;49.404;11.034;2023-01-15T03:39:32;0.25;;;0.25;;
75626;SDS011;64211;49.404;11.034;2023-01-15T03:47:44;0.50;;;0.25;;
75626;SDS011;64211;49.404;11.034;2023-01-15T03:50:30;0.63;;;0.50;;
75626;SDS011;64211;49.404;11.034;2023-01-15T03:56:00;0.50;;;0.30;;
75626;SDS011;64211;49.404;11.034;2023-01-15T03:58:46;0.88;;;0.22;;
75626;SDS011;64211;49.404;11.034;2023-01-15T04:01:17;0.20;;;0.20;;
75626;SDS011;64211;49.404;11.034;2023-01-15T04:03:48;1.05;;;0.30;;
75626;SDS011;64211;49.404;11.034;2023-01-15T04:06:16;0.52;;;0.30;;
75626;SDS011;64211;49.404;11.034;2023-01-15T04:08:44;0.40;;;0.30;;
75626;SDS011;64211;49.404;11.034;2023-01-15T04:11:12;0.20;;;0.20;;
75626;SDS011;64211;49.404;11.034;2023-01-15T04:13:38;0.68;;;0.30;;
75626;SDS011;64211;49.404;11.034;2023-01-15T04:16:05;2.65;;;0.50;;
75626;SDS011;64211;49.404;11.034;2023-01-15T04:18:31;0.65;;;0.30;;
75626;SDS011;64211;49.404;11.034;2023-01-15T04:20:58;1.10;;;0.30;;
75626;SDS011;64211;49.404;11.034;2023-01-15T04:23:24;0.70;;;0.30;;
75626;SDS011;64211;49.404;11.034;2023-01-15T04:25:50;0.22;;;0.20;;
75626;SDS011;64211;49.404;11.034;2023-01-15T04:28:17;0.30;;;0.20;;
75626;SDS011;64211;49.404;11.034;2023-01-15T04:30:43;1.92;;;0.40;;
75626;SDS011;64211;49.404;11.034;2023-01-15T04:33:10;0.65;;;0.30;;
75626;SDS011;64211;49.404;11.034;2023-01-15T04:35:37;0.35;;;0.30;;
75626;SDS011;64211;49.404;11.034;2023-01-15T04:38:04;1.40;;;0.30;;
75626;SDS011;64211;49.404;11.034;2023-01-15T04:40:30;0.50;;;0.30;;
75626;SDS011;64211;49.404;11.034;2023-01-15T04:42:56;0.50;;;0.20;;
75626;SDS011;64211;49.404;11.034;2023-01-15T04:45:23;0.65;;;0.35;;
75626;SDS011;64211;49.404;11.034;2023-01-15T04:47:49;0.43;;;0.30;;
75626;SDS011;64211;49.404;11.034;2023-01-15T04:50:16;1.02;;;0.30;;
75626;SDS011;64211;49.404;11.034;2023-01-15T04:52:42;0.40;;;0.40;;
75626;SDS011;64211;49.404;11.034;2023-01-15T04:55:08;0.77;;;0.40;;
75626;SDS011;64211;49.404;11.034;2023-01-15T04:57:35;0.22;;;0.20;;
75626;SDS011;64211;49.404;11.034;2023-01-15T05:00:01;0.65;;;0.30;;
75626;SDS011;64211;49.404;11.034;2023-01-15T05:02:28;0.93;;;0.47;;
75626;SDS011;64211;49.404;11.034;2023-01-15T05:04:55;0.20;;;0.17;;
75626;SDS011;64211;49.404;11.034;2023-01-15T05:07:21;1.63;;;0.38;;
75626;SDS011;64211;49.404;11.034;2023-01-15T05:09:48;1.67;;;0.40;;
75626;SDS011;64211;49.404;11.034;2023-01-15T05:12:14;0.38;;;0.38;;
75626;SDS011;64211;49.404;11.034;2023-01-15T05:14:40;0.90;;;0.30;;
75626;SDS011;64211;49.404;11.034;2023-01-15T05:17:06;0.40;;;0.30;;
75626;SDS011;64211;49.404;11.034;2023-01-15T05:19:33;0.45;;;0.30;;
75626;SDS011;64211;49.404;11.034;2023-01-15T05:21:59;0.30;;;0.20;;
75626;SDS011;64211;49.404;11.034;2023-01-15T05:24:25;0.38;;;0.28;;
75626;SDS011;64211;49.404;11.034;2023-01-15T05:26:52;0.22;;;0.20;;
75626;SDS011;64211;49.404;11.034;2023-01-15T05:29:18;0.32;;;0.28;;
75626;SDS011;64211;49.404;11.034;2023-01-15T05:31:44;0.47;;;0.30;;
75626;SDS011;64211;49.404;11.034;2023-01-15T05:34:11;0.47;;;0.20;;
75626;SDS011;64211;49.404;11.034;2023-01-15T05:36:38;0.77;;;0.30;;
75626;SDS011;64211;49.404;11.034;2023-01-15T05:39:04;1.15;;;0.30;;
75626;SDS011;64211;49.404;11.034;2023-01-15T05:41:31;0.75;;;0.30;;
75626;SDS011;64211;49.404;11.034;2023-01-15T05:44:02;0.60;;;0.40;;
75626;SDS011;64211;49.404;11.034;2023-01-15T05:46:30;0.88;;;0.30;;
75626;SDS011;64211;49.404;11.034;2023-01-15T05:48:59;0.95;;;0.25;;
75626;SDS011;64211;49.404;11.034;2023-01-15T05:51:27;0.52;;;0.32;;
75626;SDS011;64211;49.404;11.034;2023-01-15T05:53:54;0.35;;;0.20;;
75626;SDS011;64211;49.404;11.034;2023-01-15T05:56:22;0.17;;;0.17;;
75626;SDS011;64211;49.404;11.034;2023-01-15T05:58:48;0.35;;;0.30;;
75626;SDS011;64211;49.404;11.034;2023-01-15T06:01:15;0.20;;;0.20;;
75626;SDS011;64211;49.404;11.034;2023-01-15T06:03:41;1.02;;;0.45;;
75626;SDS011;64211;49.404;11.034;2023-01-15T06:06:15;0.63;;;0.30;;
75626;SDS011;64211;49.404;11.034;2023-01-15T06:08:43;0.40;;;0.25;;
75626;SDS011;64211;49.404;11.034;2023-01-15T06:11:10;0.93;;;0.30;;
75626;SDS011;64211;49.404;11.034;2023-01-15T06:13:37;0.28;;;0.20;;
75626;SDS011;64211;49.404;11.034;2023-01-15T06:16:05;0.60;;;0.32;;
75626;SDS011;64211;49.404;11.034;2023-01-15T06:18:32;0.25;;;0.20;;
75626;SDS011;64211;49.404;11.034;2023-01-15T06:21:03;0.70;;;0.40;;
75626;SDS011;64211;49.404;11.034;2023-01-15T06:23:31;0.60;;;0.30;;
75626;SDS011;64211;49.404;11.034;2023-01-15T06:25:58;0.38;;;0.30;;
75626;SDS011;64211;49.404;11.034;2023-01-15T06:28:25;0.60;;;0.20;;
75626;SDS011;64211;49.404;11.034;2023-01-15T06:30:52;0.73;;;0.25;;
75626;SDS011;64211;49.404;11.034;2023-01-15T06:33:18;0.30;;;0.20;;
75626;SDS011;64211;49.404;11.034;2023-01-15T06:35:45;0.52;;;0.30;;
75626;SDS011;64211;49.404;11.034;2023-01-15T06:38:11;0.63;;;0.10;;
75626;SDS011;64211;49.404;11.034;2023-01-15T06:40:37;0.20;;;0.20;;
75626;SDS011;64211;49.404;11.034;2023-01-15T06:43:04;0.22;;;0.20;;
75626;SDS011;64211;49.404;11.034;2023-01-15T06:45:32;0.20;;;0.10;;
75626;SDS011;64211;49.404;11.034;2023-01-15T06:48:03;0.20;;;0.10;;
75626;SDS011;64211;49.404;11.034;2023-01-15T06:50:29;0.20;;;0.20;;
75626;SDS011;64211;49.404;11.034;2023-01-15T06:52:56;0.95;;;0.20;;
75626;SDS011;64211;49.404;11.034;2023-01-15T06:55:22;0.22;;;0.20;;
75626;SDS011;64211;49.404;11.034;2023-01-15T06:57:48;0.45;;;0.20;;
75626;SDS011;64211;49.404;11.034;2023-01-15T07:00:15;0.50;;;0.28;;
75626;SDS011;64211;49.404;11.034;2023-01-15T07:02:41;0.57;;;0.45;;
75626;SDS011;64211;49.404;11.034;2023-01-15T07:05:08;0.50;;;0.30;;
75626;SDS011;64211;49.404;11.034;2023-01-15T07:07:34;0.63;;;0.35;;
75626;SDS011;64211;49.404;11.034;2023-01-15T07:10:00;0.38;;;0.30;;
75626;SDS011;64211;49.404;11.034;2023-01-15T07:12:27;0.52;;;0.20;;
75626;SDS011;64211;49.404;11.034;2023-01-15T07:14:53;0.55;;;0.30;;
75626;SDS011;64211;49.404;11.034;2023-01-15T07:17:19;0.47;;;0.20;;
75626;SDS011;64211;49.404;11.034;2023-01-15T07:19:46;0.30;;;0.10;;
75626;SDS011;64211;49.404;11.034;2023-01-15T07:22:12;1.65;;;0.40;;
75626;SDS011;64211;49.404;11.034;2023-01-15T07:24:39;0.40;;;0.30;;
75626;SDS011;64211;49.404;11.034;2023-01-15T07:27:05;0.65;;;0.17;;
75626;SDS011;64211;49.404;11.034;2023-01-15T07:29:31;0.20;;;0.17;;
75626;SDS011;64211;49.404;11.034;2023-01-15T07:31:58;0.93;;;0.25;;
75626;SDS011;64211;49.404;11.034;2023-01-15T07:34:24;0.35;;;0.20;;
75626;SDS011;64211;49.404;11.034;2023-01-15T07:36:51;1.05;;;0.70;;
75626;SDS011;64211;49.404;11.034;2023-01-15T07:39:17;0.50;;;0.30;;
75626;SDS011;64211;49.404;11.034;2023-01-15T07:41:43;1.70;;;0.98;;
75626;SDS011;64211;49.404;11.034;2023-01-15T07:44:10;1.23;;;0.80;;
75626;SDS011;64211;49.404;11.034;2023-01-15T07:46:37;2.13;;;1.42;;
75626;SDS011;64211;49.404;11.034;2023-01-15T07:49:04;0.60;;;0.40;;
75626;SDS011;64211;49.404;11.034;2023-01-15T07:51:36;0.70;;;0.40;;
75626;SDS011;64211;49.404;11.034;2023-01-15T07:54:02;0.80;;;0.32;;
75626;SDS011;64211;49.404;11.034;2023-01-15T07:56:29;1.17;;;0.30;;
75626;SDS011;64211;49.404;11.034;2023-01-15T07:58:55;1.42;;;0.40;;
75626;SDS011;64211;49.404;11.034;2023-01-15T08:01:22;0.52;;;0.40;;
75626;SDS011;64211;49.404;11.034;2023-01-15T08:03:48;1.05;;;0.50;;
75626;SDS011;64211;49.404;11.034;2023-01-15T08:06:14;0.47;;;0.47;;
75626;SDS011;64211;49.404;11.034;2023-01-15T08:08:41;0.52;;;0.40;;
75626;SDS011;64211;49.404;11.034;2023-01-15T08:11:07;0.28;;;0.28;;
75626;SDS011;64211;49.404;11.034;2023-01-15T08:13:33;0.85;;;0.45;;
75626;SDS011;64211;49.404;11.034;2023-01-15T08:16:00;0.98;;;0.40;;
75626;SDS011;64211;49.404;11.034;2023-01-15T08:18:26;1.02;;;0.40;;
75626;SDS011;64211;49.404;11.034;2023-01-15T08:20:52;1.33;;;0.82;;
75626;SDS011;64211;49.404;11.034;2023-01-15T08:23:19;0.50;;;0.40;;
75626;SDS011;64211;49.404;11.034;2023-01-15T08:25:45;0.90;;;0.50;;
75626;SDS011;64211;49.404;11.034;2023-01-15T08:28:11;0.93;;;0.45;;
75626;SDS011;64211;49.404;11.034;2023-01-15T08:30:38;0.98;;;0.77;;
75626;SDS011;64211;49.404;11.034;2023-01-15T08:33:04;2.25;;;1.20;;
75626;SDS011;64211;49.404;11.034;2023-01-15T08:35:30;1.15;;;0.80;;
75626;SDS011;64211;49.404;11.034;2023-01-15T08:37:57;0.70;;;0.55;;
75626;SDS011;64211;49.404;11.034;2023-01-15T08:40:23;0.40;;;0.40;;
75626;SDS011;64211;49.404;11.034;2023-01-15T08:42:50;0.90;;;0.60;;
75626;SDS011;64211;49.404;11.034;2023-01-15T08:45:16;0.30;;;0.20;;
75626;SDS011;64211;49.404;11.034;2023-01-15T08:47:42;0.65;;;0.40;;
75626;SDS011;64211;49.404;11.034;2023-01-15T08:50:09;1.48;;;0.90;;
75626;SDS011;64211;49.404;11.034;2023-01-15T08:52:36;0.75;;;0.60;;
75626;SDS011;64211;49.404;11.034;2023-01-15T08:55:02;1.17;;;0.50;;
75626;SDS011;64211;49.404;11.034;2023-01-15T08:57:29;0.65;;;0.55;;
75626;SDS011;64211;49.404;11.034;2023-01-15T08:59:55;4.78;;;1.95;;
75626;SDS011;64211;49.404;11.034;2023-01-15T09:02:22;0.70;;;0.55;;
75626;SDS011;64211;49.404;11.034;2023-01-15T09:04:48;1.13;;;0.60;;
75626;SDS011;64211;49.404;11.034;2023-01-15T09:07:14;2.55;;;0.90;;
75626;SDS011;64211;49.404;11.034;2023-01-15T09:09:41;1.45;;;1.00;;
75626;SDS011;64211;49.404;11.034;2023-01-15T09:12:07;1.85;;;0.68;;
75626;SDS011;64211;49.404;11.034;2023-01-15T09:14:33;0.80;;;0.60;;
75626;SDS011;64211;49.404;11.034;2023-01-15T09:17:20;1.40;;;0.70;;
75626;SDS011;64211;49.404;11.034;2023-01-15T09:19:46;2.70;;;1.20;;
75626;SDS011;64211;49.404;11.034;2023-01-15T09:22:13;0.73;;;0.60;;
75626;SDS011;64211;49.404;11.034;2023-01-15T09:24:39;0.90;;;0.50;;
75626;SDS011;64211;49.404;11.034;2023-01-15T09:27:05;1.40;;;0.80;;
75626;SDS011;64211;49.404;11.034;2023-01-15T09:29:32;2.17;;;0.98;;
75626;SDS011;64211;49.404;11.034;2023-01-15T09:31:58;1.15;;;0.73;;
75626;SDS011;64211;49.404;11.034;2023-01-15T09:34:24;1.17;;;0.80;;
75626;SDS011;64211;49.404;11.034;2023-01-15T09:36:51;0.93;;;0.70;;
75626;SDS011;64211;49.404;11.034;2023-01-15T09:39:17;0.68;;;0.45;;
75626;SDS011;64211;49.404;11.034;2023-01-15T09:44:33;1.30;;;0.85;;
75626;SDS011;64211;49.404;11.034;2023-01-15T09:55:19;1.33;;;1.10;;
75626;SDS011;64211;49.404;11.034;2023-01-15T09:57:52;1.20;;;0.90;;
75626;SDS011;64211;49.404;11.034;2023-01-15T10:00:24;1.38;;;1.00;;
75626;SDS011;64211;49.404;11.034;2023-01-15T10:03:01;3.00;;;0.90;;
75626;SDS011;64211;49.404;11.034;2023-01-15T10:05:43;3.03;;;1.40;;
75626;SDS011;64211;49.404;11.034;2023-01-15T10:08:19;1.70;;;1.02;;
75626;SDS011;64211;49.404;11.034;2023-01-15T10:10:51;1.63;;;1.17;;
75626;SDS011;64211;49.404;11.034;2023-01-15T10:16:25;2.20;;;1.15;;
75626;SDS011;64211;49.404;11.034;2023-01-15T10:18:54;4.47;;;1.80;;
75626;SDS011;64211;49.404;11.034;2023-01-15T10:21:31;4.97;;;2.45;;
75626;SDS011;64211;49.404;11.034;2023-01-15T10:24:06;3.58;;;1.60;;
75626;SDS011;64211;49.404;11.034;2023-01-15T10:43:44;0.47;;;0.38;;
75626;SDS011;64211;49.404;11.034;2023-01-15T10:46:16;1.00;;;0.50;;
75626;SDS011;64211;49.404;11.034;2023-01-15T10:48:50;1.60;;;0.60;;
75626;SDS011;64211;49.404;11.034;2023-01-15T10:51:20;0.90;;;0.52;;
75626;SDS011;64211;49.404;11.034;2023-01-15T10:54:06;0.85;;;0.60;;
75626;SDS011;64211;49.404;11.034;2023-01-15T10:56:42;1.10;;;0.70;;
75626;SDS011;64211;49.404;11.034;2023-01-15T11:02:14;1.35;;;0.70;;
75626;SDS011;64211;49.404;11.034;2023-01-15T11:04:47;2.17;;;0.77;;
75626;SDS011;64211;49.404;11.034;2023-01-15T11:07:14;1.23;;;0.68;;
75626;SDS011;64211;49.404;11.034;2023-01-15T11:09:41;1.25;;;1.02;;
75626;SDS011;64211;49.404;11.034;2023-01-15T11:12:24;1.02;;;0.80;;
75626;SDS011;64211;49.404;11.034;2023-01-15T11:14:53;1.13;;;0.75;;
75626;SDS011;64211;49.404;11.034;2023-01-15T11:17:21;1.10;;;0.70;;
75626;SDS011;64211;49.404;11.034;2023-01-15T11:19:50;1.08;;;0.80;;
75626;SDS011;64211;49.404;11.034;2023-01-15T11:22:18;1.02;;;0.80;;
75626;SDS011;64211;49.404;11.034;2023-01-15T11:27:15;1.00;;;0.80;;
75626;SDS011;64211;49.404;11.034;2023-01-15T11:29:44;1.45;;;0.60;;
75626;SDS011;64211;49.404;11.034;2023-01-15T11:32:29;0.80;;;0.40;;
75626;SDS011;64211;49.404;11.034;2023-01-15T11:35:01;0.82;;;0.55;;
75626;SDS011;64211;49.404;11.034;2023-01-15T11:37:33;0.60;;;0.47;;
75626;SDS011;64211;49.404;11.034;2023-01-15T11:40:00;1.05;;;0.40;;
75626;SDS011;64211;49.404;11.034;2023-01-15T11:42:27;0.47;;;0.38;;
75626;SDS011;64211;49.404;11.034;2023-01-15T11:44:55;0.68;;;0.32;;
75626;SDS011;64211;49.404;11.034;2023-01-15T11:47:22;0.45;;;0.35;;
75626;SDS011;64211;49.404;11.034;2023-01-15T11:49:49;0.50;;;0.30;;
75626;SDS011;64211;49.404;11.034;2023-01-15T11:52:17;0.30;;;0.20;;
75626;SDS011;64211;49.404;11.034;2023-01-15T11:54:48;0.65;;;0.40;;
75626;SDS011;64211;49.404;11.034;2023-01-15T11:57:25;0.55;;;0.32;;
75626;SDS011;64211;49.404;11.034;2023-01-15T11:59:58;0.98;;;0.35;;
75626;SDS011;64211;49.404;11.034;2023-01-15T12:02:37;0.50;;;0.30;;
75626;SDS011;64211;49.404;11.034;2023-01-15T12:05:12;0.57;;;0.30;;
75626;SDS011;64211;49.404;11.034;2023-01-15T12:07:41;0.50;;;0.30;;
75626;SDS011;64211;49.404;11.034;2023-01-15T12:15:36;0.75;;;0.40;;
75626;SDS011;64211;49.404;11.034;2023-01-15T12:21:04;1.45;;;0.40;;
75626;SDS011;64211;49.404;11.034;2023-01-15T12:27:01;0.80;;;0.30;;
75626;SDS011;64211;49.404;11.034;2023-01-15T12:29:43;1.20;;;0.30;;
75626;SDS011;64211;49.404;11.034;2023-01-15T12:32:17;1.10;;;0.30;;
75626;SDS011;64211;49.404;11.034;2023-01-15T12:34:57;1.00;;;0.30;;
75626;SDS011;64211;49.404;11.034;2023-01-15T12:37:28;0.68;;;0.40;;
75626;SDS011;64211;49.404;11.034;2023-01-15T12:42:43;0.47;;;0.20;;
75626;SDS011;64211;49.404;11.034;2023-01-15T12:45:26;1.23;;;0.65;;
75626;SDS011;64211;49.404;11.034;2023-01-15T12:50:49;0.60;;;0.50;;
75626;SDS011;64211;49.404;11.034;2023-01-15T13:01:25;1.17;;;0.57;;
75626;SDS011;64211;49.404;11.034;2023-01-15T13:06:47;0.70;;;0.63;;
75626;SDS011;64211;49.404;11.034;2023-01-15T13:09:33;0.85;;;0.63;;
75626;SDS011;64211;49.404;11.034;2023-01-15T13:12:12;1.02;;;0.50;;
75626;SDS011;64211;49.404;11.034;2023-01-15T13:14:40;1.15;;;0.70;;
75626;SDS011;64211;49.404;11.034;2023-01-15T13:20:54;1.92;;;1.00;;
75626;SDS011;64211;49.404;11.034;2023-01-15T13:26:15;1.15;;;0.63;;
75626;SDS011;64211;49.404;11.034;2023-01-15T13:28:52;1.02;;;0.65;;
75626;SDS011;64211;49.404;11.034;2023-01-15T13:33:55;1.00;;;0.88;;
75626;SDS011;64211;49.404;11.034;2023-01-15T13:36:35;1.73;;;0.80;;
75626;SDS011;64211;49.404;11.034;2023-01-15T13:39:10;1.05;;;0.70;;
75626;SDS011;64211;49.404;11.034;2023-01-15T13:41:42;1.05;;;0.80;;
75626;SDS011;64211;49.404;11.034;2023-01-15T13:44:21;2.10;;;0.68;;
75626;SDS011;64211;49.404;11.034;2023-01-15T13:47:02;3.17;;;0.80;;
75626;SDS011;64211;49.404;11.034;2023-01-15T13:49:36;1.83;;;0.60;;
75626;SDS011;64211;49.404;11.034;2023-01-15T13:52:07;2.28;;;0.50;;
75626;SDS011;64211;49.404;11.034;2023-01-15T13:57:22;0.85;;;0.60;;
75626;SDS011;64211;49.404;11.034;2023-01-15T13:59:49;0.77;;;0.60;;
75626;SDS011;64211;49.404;11.034;2023-01-15T14:02:26;1.20;;;0.60;;
75626;SDS011;64211;49.404;11.034;2023-01-15T14:04:54;1.15;;;0.60;;
75626;SDS011;64211;49.404;11.034;2023-01-15T14:07:34;1.67;;;0.77;;
75626;SDS011;64211;49.404;11.034;2023-01-15T14:12:40;0.85;;;0.50;;
75626;SDS011;64211;49.404;11.034;2023-01-15T14:15:23;1.23;;;0.85;;
75626;SDS011;64211;49.404;11.034;2023-01-15T14:20:58;2.22;;;0.63;;
75626;SDS011;64211;49.404;11.034;2023-01-15T14:27:03;1.52;;;0.80;;
75626;SDS011;64211;49.404;11.034;2023-01-15T14:32:30;3.38;;;1.27;;
75626;SDS011;64211;49.404;11.034;2023-01-15T14:34:59;0.93;;;0.50;;
75626;SDS011;64211;49.404;11.034;2023-01-15T14:37:29;0.80;;;0.47;;
75626;SDS011;64211;49.404;11.034;2023-01-15T14:40:02;1.20;;;0.55;;
75626;SDS011;64211;49.404;11.034;2023-01-15T14:42:34;2.65;;;0.50;;
75626;SDS011;64211;49.404;11.034;2023-01-15T14:45:04;0.93;;;0.60;;
75626;SDS011;64211;49.404;11.034;2023-01-15T14:47:35;2.00;;;0.70;;
75626;SDS011;64211;49.404;11.034;2023-01-15T14:58:30;1.55;;;0.57;;
75626;SDS011;64211;49.404;11.034;2023-01-15T15:01:16;1.23;;;0.52;;
75626;SDS011;64211;49.404;11.034;2023-01-15T15:03:49;0.82;;;0.50;;
75626;SDS011;64211;49.404;11.034;2023-01-15T15:06:19;1.90;;;0.60;;
75626;SDS011;64211;49.404;11.034;2023-01-15T15:08:46;0.80;;;0.70;;
75626;SDS011;64211;49.404;11.034;2023-01-15T15:11:17;3.60;;;0.80;;
75626;SDS011;64211;49.404;11.034;2023-01-15T15:13:49;1.25;;;0.65;;
75626;SDS011;64211;49.404;11.034;2023-01-15T15:16:23;2.55;;;0.70;;
75626;SDS011;64211;49.404;11.034;2023-01-15T15:19:37;3.97;;;0.77;;
75626;SDS011;64211;49.404;11.034;2023-01-15T15:21:52;1.67;;;0.50;;
75626;SDS011;64211;49.404;11.034;2023-01-15T15:24:31;2.05;;;0.70;;
75626;SDS011;64211;49.404;11.034;2023-01-15T15:29:47;0.95;;;0.40;;
75626;SDS011;64211;49.404;11.034;2023-01-15T15:32:17;1.73;;;0.35;;
75626;SDS011;64211;49.404;11.034;2023-01-15T15:34:47;1.60;;;0.65;;
75626;SDS011;64211;49.404;11.034;2023-01-15T15:37:17;1.67;;;0.70;;
75626;SDS011;64211;49.404;11.034;2023-01-15T15:42:16;1.35;;;0.77;;
75626;SDS011;64211;49.404;11.034;2023-01-15T15:47:21;1.75;;;0.60;;
75626;SDS011;64211;49.404;11.034;2023-01-15T15:49:49;0.85;;;0.60;;
75626;SDS011;64211;49.404;11.034;2023-01-15T15:52:21;2.47;;;0.80;;
75626;SDS011;64211;49.404;11.034;2023-01-15T15:55:00;1.17;;;0.50;;
75626;SDS011;64211;49.404;11.034;2023-01-15T15:57:28;2.78;;;0.73;;
75626;SDS011;64211;49.404;11.034;2023-01-15T15:59:57;1.13;;;0.68;;
75626;SDS011;64211;49.404;11.034;2023-01-15T16:02:32;0.47;;;0.40;;
75626;SDS011;64211;49.404;11.034;2023-01-15T16:07:46;2.50;;;0.60;;
75626;SDS011;64211;49.404;11.034;2023-01-15T16:10:13;0.55;;;0.55;;
75626;SDS011;64211;49.404;11.034;2023-01-15T16:12:48;0.52;;;0.50;;
75626;SDS011;64211;49.404;11.034;2023-01-15T16:15:18;1.33;;;0.65;;
75626;SDS011;64211;49.404;11.034;2023-01-15T16:17:47;2.03;;;0.65;;
75626;SDS011;64211;49.404;11.034;2023-01-15T16:20:16;1.17;;;0.95;;
75626;SDS011;64211;49.404;11.034;2023-01-15T16:22:44;1.75;;;0.80;;
75626;SDS011;64211;49.404;11.034;2023-01-15T16:25:20;0.80;;;0.60;;
75626;SDS011;64211;49.404;11.034;2023-01-15T16:27:52;1.67;;;0.80;;
75626;SDS011;64211;49.404;11.034;2023-01-15T16:30:19;3.80;;;1.10;;
75626;SDS011;64211;49.404;11.034;2023-01-15T16:32:46;1.48;;;0.90;;
75626;SDS011;64211;49.404;11.034;2023-01-15T16:35:15;2.38;;;1.08;;
75626;SDS011;64211;49.404;11.034;2023-01-15T16:37:51;4.90;;;1.02;;
75626;SDS011;64211;49.404;11.034;2023-01-15T16:40:24;3.08;;;0.90;;
75626;SDS011;64211;49.404;11.034;2023-01-15T16:42:59;3.22;;;1.13;;
75626;SDS011;64211;49.404;11.034;2023-01-15T16:45:29;5.20;;;1.65;;
75626;SDS011;64211;49.404;11.034;2023-01-15T16:50:36;2.25;;;0.95;;
75626;SDS011;64211;49.404;11.034;2023-01-15T16:53:05;3.28;;;1.02;;
75626;SDS011;64211;49.404;11.034;2023-01-15T16:55:51;2.83;;;1.10;;
75626;SDS011;64211;49.404;11.034;2023-01-15T16:58:18;1.33;;;0.80;;
75626;SDS011;64211;49.404;11.034;2023-01-15T17:07:04;3.28;;;1.15;;